Latest Weather Observations for Mount Hotham Airport

IDV60801

Issued at 4:31 pm EST Friday 28 August 2015 (issued every 30 minutes, with the page automatically refreshed every 10 minutes)

About weather observations | Map of weather stations | Latest weather observations for VIC | Other Formats
Station Details ID: 083055 Name: MOUNT HOTHAM AIRPORT Lat: -37.05 Lon: 147.33 Height: 1295.4 m
Data from the previous 72 hours. | See also: Recent months at Mount Hotham Airport
Date/Time
EST
Temp
°C
App
Temp
°C
Dew
Point
Rel
Hum
%
Delta-T
°C
Wind Press
QNH
hPa
Press
MSL
hPa
Rain
since 9 am
mm
Dir
 
Spd
km/h
Gust
km/h
Spd
kts
Gust
kts
28/04:30pm 3.6 -0.5 2.3 91 0.6 S 13 17 7 9 1020.6 - 0.2
28/04:00pm 4.1 0.4 2.1 87 0.9 SSW 11 17 6 9 1020.6 - 0.2
28/03:30pm 4.5 0.7 1.9 83 1.1 S 11 19 6 10 1020.5 - 0.0
28/03:00pm 4.7 1.6 1.6 80 1.3 SSE 7 11 4 6 1020.5 1023.9 0.0
28/02:30pm 5.2 1.6 0.6 72 1.9 WSW 9 13 5 7 1020.7 - 0.0
28/02:00pm 4.4 1.5 2.6 88 0.8 SW 7 11 4 6 1021.0 - 0.0
28/01:30pm 4.6 0.7 0.9 77 1.6 S 11 24 6 13 1021.1 - 0.0
28/01:00pm 5.0 0.6 0.6 73 1.9 SSW 13 20 7 11 1021.1 - 0.0
28/12:30pm 5.3 1.4 1.1 74 1.8 SSW 11 20 6 11 1021.4 - 0.0
28/12:00pm 5.0 1.1 1.1 76 1.7 S 11 17 6 9 1021.8 1025.2 0.0
28/11:30am 4.7 0.5 1.4 79 1.4 S 13 20 7 11 1021.9 - 0.0
28/11:00am 4.5 0.2 1.0 78 1.5 SSW 13 20 7 11 1021.9 - 0.0
28/10:30am 4.0 0.5 1.0 81 1.3 SW 9 20 5 11 1021.6 - 0.0
28/10:00am 3.5 -0.8 0.9 83 1.1 S 13 26 7 14 1021.8 - 0.0
28/09:30am 2.7 -2.1 0.4 85 0.9 S 15 22 8 12 1021.5 - 0.0
28/09:00am 2.4 -2.7 0.5 87 0.8 SSW 17 28 9 15 1021.5 1024.9 9.2
28/08:30am 2.0 -3.5 0.4 89 0.7 SSW 19 26 10 14 1021.3 - 9.2
28/08:00am 2.1 -1.8 1.2 94 0.4 S 11 20 6 11 1021.2 - 9.2
28/07:30am 1.4 -2.9 0.8 96 0.2 SSW 13 28 7 15 1021.0 - 9.2
28/07:00am 1.3 -3.4 1.2 99 0.0 S 15 22 8 12 1020.6 - 9.2
28/06:30am 1.4 -4.9 1.3 99 0.0 SSW 24 33 13 18 1020.2 - 9.2
28/06:00am 1.5 -3.9 1.4 99 0.0 S 19 32 10 17 1019.6 1023.0 9.2
28/05:30am 1.7 -4.6 1.6 99 0.0 SSW 24 41 13 22 1019.3 - 9.2
28/05:11am 1.8 -4.5 1.7 99 0.0 S 24 37 13 20 1019.0 - 9.2
28/05:00am 1.9 -4.4 1.8 99 0.0 S 24 41 13 22 1018.8 - 9.2
28/04:30am 2.1 -2.8 2.0 99 0.0 S 17 33 9 18 1018.4 - 9.2
28/04:24am 2.1 -2.8 2.0 99 0.0 S 17 28 9 15 1018.5 - 9.2
28/04:16am 2.1 -2.8 2.0 99 0.0 SSW 17 26 9 14 1018.4 - 9.2
28/04:01am 2.1 -2.8 2.0 99 0.0 SSW 17 32 9 17 1018.4 - 9.0
28/04:00am 2.1 -2.8 2.0 99 0.0 SSW 17 32 9 17 1018.4 - 9.0
28/03:59am 2.1 -3.2 2.0 99 0.0 SSW 19 32 10 17 1018.2 - 9.0
28/03:41am 2.2 -3.3 2.1 99 0.0 SSW 20 30 11 16 1018.0 - 8.8
28/03:30am 2.1 -3.2 2.0 99 0.0 SSW 19 28 10 15 1017.9 - 8.6
28/03:19am 2.2 -3.1 2.1 99 0.0 SSW 19 30 10 16 1017.9 - 8.6
28/03:00am 2.3 -1.8 2.2 99 0.0 SSW 13 22 7 12 1018.0 1021.3 8.4
28/02:30am 2.4 -2.5 2.3 99 0.0 SSW 17 30 9 16 1018.1 - 7.8
28/02:12am 2.4 -2.1 2.3 99 0.0 SSW 15 24 8 13 1018.2 - 7.6
28/02:03am 2.4 -2.5 2.3 99 0.0 SSW 17 26 9 14 1018.2 - 7.6
28/02:00am 2.3 -2.2 2.2 99 0.0 SSW 15 22 8 12 1018.2 - 7.6
28/01:53am 2.3 -2.2 2.2 99 0.0 SSW 15 22 8 12 1018.2 - 7.4
28/01:40am 2.4 -1.3 2.3 99 0.0 SSW 11 19 6 10 1018.2 - 7.2
28/01:30am 2.4 -1.3 2.3 99 0.0 SW 11 17 6 9 1018.4 - 6.8
28/01:04am 2.2 -0.8 2.1 99 0.0 SSW 7 11 4 6 1018.5 - 6.6
28/01:00am 2.2 -0.8 2.1 99 0.0 SSW 7 15 4 8 1018.5 - 6.4
28/12:30am 2.2 -1.9 2.1 99 0.0 S 13 19 7 10 1018.4 - 6.2
28/12:00am 2.4 -2.1 2.3 99 0.0 SSW 15 26 8 14 1018.4 1021.7 5.6
 
Date/Time
EST
Temp
°C
App
Temp
°C
Dew
Point
Rel
Hum
%
Delta-T
°C
Wind Press
QNH
hPa
Press
MSL
hPa
Rain
since 9 am
mm
Dir
 
Spd
km/h
Gust
km/h
Spd
kts
Gust
kts
27/11:36pm 2.6 -1.8 2.5 99 0.0 SSW 15 22 8 12 1018.4 - 4.8
27/11:30pm 2.6 -1.5 2.5 99 0.0 S 13 20 7 11 1018.4 - 4.6
27/11:00pm 2.8 -0.8 2.7 99 0.0 SSW 11 17 6 9 1018.2 - 4.0
27/10:30pm 2.7 -0.2 2.6 99 0.0 SSW 7 11 4 6 1018.2 - 4.0
27/10:00pm 2.7 -0.2 2.6 99 0.0 S 7 11 4 6 1018.4 - 4.0
27/09:30pm 2.8 -0.8 2.7 99 0.0 SSW 11 15 6 8 1018.4 - 3.8
27/09:00pm 2.8 -0.8 2.7 99 0.0 SSW 11 17 6 9 1018.2 1021.5 3.8
27/08:56pm 2.8 -0.5 2.7 99 0.0 SSW 9 13 5 7 1018.2 - 3.8
27/08:54pm 2.8 -0.5 2.7 99 0.0 SSW 9 13 5 7 1018.2 - 3.8
27/08:31pm 2.9 0.2 2.8 99 0.0 SW 6 9 3 5 1018.1 - 3.8
27/08:30pm 2.9 0.2 2.8 99 0.0 SW 6 9 3 5 1018.1 - 3.8
27/08:26pm 3.0 0.3 2.7 98 0.1 SW 6 9 3 5 1018.1 - 3.8
27/08:10pm 3.0 0.7 2.6 97 0.2 SW 4 7 2 4 1018.1 - 3.8
27/08:00pm 3.0 0.6 2.4 96 0.3 SSW 4 7 2 4 1018.0 - 3.8
27/07:30pm 3.1 0.2 2.4 95 0.3 SW 7 15 4 8 1017.6 - 3.8
27/07:00pm 3.0 0.0 2.3 95 0.3 SW 7 11 4 6 1017.6 - 3.8
27/06:30pm 2.8 -0.3 1.6 92 0.5 WSW 7 11 4 6 1017.2 - 3.8
27/06:00pm 3.0 -0.9 1.4 89 0.7 WSW 11 17 6 9 1016.9 1020.1 3.8
27/05:30pm 4.1 -0.2 1.3 82 1.2 SW 13 20 7 11 1016.5 - 3.8
27/05:00pm 5.5 2.0 1.1 73 1.9 WSW 9 15 5 8 1016.2 - 3.8
27/04:30pm 5.6 1.3 1.3 74 1.9 W 13 17 7 9 1016.1 - 3.8
27/04:00pm 8.2 4.3 1.4 62 3.0 W 11 17 6 9 1016.0 - 3.8
27/03:30pm 7.7 3.4 1.1 63 2.9 WSW 13 19 7 10 1016.0 - 3.8
27/03:00pm 8.5 3.6 1.9 63 3.0 W 17 24 9 13 1016.1 1019.3 3.8
27/02:30pm 8.0 2.8 2.3 67 2.6 W 19 28 10 15 1016.1 - 3.8
27/02:00pm 8.9 4.2 3.1 67 2.7 W 17 22 9 12 1016.3 - 3.8
27/01:30pm 7.3 4.0 2.6 72 2.1 W 9 19 5 10 1016.4 - 3.8
27/01:00pm 7.5 4.5 4.1 79 1.6 SSE 9 20 5 11 1016.7 - 3.8
27/12:30pm 9.1 5.9 2.9 65 2.9 NNW 9 15 5 8 1016.9 - 3.8
27/12:00pm 7.7 5.3 5.3 85 1.2 N 7 15 4 8 1017.3 1020.6 3.8
27/11:30am 6.3 4.1 6.2 99 0.0 W 7 13 4 7 1017.6 - 3.8
27/11:00am 4.5 1.6 4.4 99 0.0 NW 9 17 5 9 1018.4 - 3.8
27/10:37am 2.9 -1.1 2.8 99 0.0 WSW 13 22 7 12 1018.6 - 3.8
27/10:30am 2.4 -1.7 2.3 99 0.0 WSW 13 20 7 11 1018.1 - 3.8
27/10:17am 2.0 -0.8 1.9 99 0.0 NW 6 9 3 5 1019.4 - 3.2
27/10:00am 1.9 -1.1 1.8 99 0.0 NW 7 11 4 6 1019.4 - 2.4
27/09:30am 2.1 -0.9 2.0 99 0.0 W 7 9 4 5 1019.4 - 1.0
27/09:00am 2.4 -0.4 2.3 99 0.0 WNW 6 7 3 4 1019.4 1022.7 11.0
27/08:48am 2.4 0.0 2.3 99 0.0 WNW 4 7 2 4 1019.4 - 10.4
27/08:32am 2.5 -0.8 2.4 99 0.0 WNW 9 11 5 6 1019.4 - 9.8
27/08:30am 2.6 -0.7 2.5 99 0.0 WNW 9 11 5 6 1019.4 - 9.8
27/08:05am 3.1 0.3 3.0 99 0.0 NNW 7 9 4 5 1019.4 - 8.4
27/08:00am 3.2 0.6 3.1 99 0.0 NNW 6 9 3 5 1019.4 - 8.0
27/07:30am 3.4 0.6 3.3 99 0.0 NNW 7 7 4 4 1019.1 - 5.8
27/07:19am 3.6 1.1 3.5 99 0.0 NNW 6 7 3 4 1018.8 - 5.2
27/07:07am 3.6 1.1 3.5 99 0.0 NNW 6 6 3 3 1018.7 - 4.6
27/07:00am 3.6 1.4 3.5 99 0.0 NNW 4 6 2 3 1018.6 - 4.6
27/06:30am 3.3 1.1 3.2 99 0.0 NW 4 4 2 2 1018.5 - 4.6
27/06:00am 3.0 0.7 2.9 99 0.0 ESE 4 6 2 3 1018.5 1021.8 4.6
27/05:37am 3.1 0.5 3.0 99 0.0 SE 6 7 3 4 1018.5 - 4.6
27/05:30am 3.3 1.5 3.2 99 0.0 SE 2 6 1 3 1018.5 - 4.6
27/05:00am 3.3 0.7 3.2 99 0.0 W 6 7 3 4 1018.7 - 4.6
27/04:46am 3.3 0.7 3.2 99 0.0 WSW 6 7 3 4 1018.8 - 4.6
27/04:31am 3.4 1.2 3.3 99 0.0 S 4 7 2 4 1019.0 - 4.4
27/04:30am 3.4 1.2 3.3 99 0.0 S 4 7 2 4 1019.0 - 4.4
27/04:27am 3.3 0.7 3.2 99 0.0 S 6 7 3 4 1019.0 - 4.2
27/04:03am 3.3 0.7 3.2 99 0.0 NNW 6 6 3 3 1019.5 - 3.2
27/04:00am 3.4 1.2 3.3 99 0.0 NW 4 6 2 3 1019.5 - 3.2
27/03:34am 2.8 1.2 2.7 99 0.0 CALM 0 0 0 0 1019.4 - 2.8
27/03:30am 3.1 1.6 3.0 99 0.0 CALM 0 0 0 0 1019.4 - 2.8
27/03:00am 2.3 -0.1 2.2 99 0.0 SSE 4 6 2 3 1019.7 1023.1 2.8
27/02:52am 2.3 0.3 2.2 99 0.0 S 2 6 1 3 1019.8 - 2.8
27/02:39am 2.5 0.5 2.4 99 0.0 ESE 2 4 1 2 1020.1 - 2.8
27/02:30am 2.8 1.2 2.7 99 0.0 CALM 0 4 0 2 1020.1 - 2.8
27/02:07am 2.5 0.5 2.4 99 0.0 NW 2 4 1 2 1020.4 - 2.8
27/02:00am 2.5 0.1 2.4 99 0.0 N 4 7 2 4 1020.5 - 2.8
27/01:30am 3.0 1.1 2.9 99 0.0 SSW 2 4 1 2 1020.8 - 2.8
27/01:03am 2.5 -0.2 2.4 99 0.0 NNW 6 6 3 3 1021.2 - 2.8
27/01:00am 2.4 0.0 2.3 99 0.0 NNW 4 6 2 3 1021.2 - 2.8
27/12:41am 2.5 0.5 2.4 99 0.0 NNE 2 6 1 3 1021.4 - 2.8
27/12:35am 2.8 0.9 2.7 99 0.0 NNW 2 4 1 2 1021.6 - 2.8
27/12:30am 3.1 0.8 3.0 99 0.0 NNW 4 4 2 2 1021.6 - 2.8
27/12:12am 3.2 0.6 3.1 99 0.0 NNW 6 7 3 4 1021.9 - 2.8
27/12:03am 3.4 0.8 3.3 99 0.0 NNW 6 7 3 4 1022.0 - 2.8
27/12:00am 3.4 0.8 3.3 99 0.0 NNW 6 7 3 4 1022.0 1025.4 2.8
 
Date/Time
EST
Temp
°C
App
Temp
°C
Dew
Point
Rel
Hum
%
Delta-T
°C
Wind Press
QNH
hPa
Press
MSL
hPa
Rain
since 9 am
mm
Dir
 
Spd
km/h
Gust
km/h
Spd
kts
Gust
kts
26/11:39pm 2.7 0.4 2.6 99 0.0 NW 4 6 2 3 1022.1 - 2.8
26/11:31pm 2.7 0.8 2.6 99 0.0 NNW 2 4 1 2 1022.2 - 2.8
26/11:30pm 2.7 0.8 2.6 99 0.0 NNW 2 4 1 2 1022.2 - 2.8
26/11:00pm 2.9 0.6 2.8 99 0.0 WNW 4 6 2 3 1022.3 - 2.8
26/10:54pm 3.2 1.0 3.1 99 0.0 N 4 6 2 3 1022.4 - 2.8
26/10:30pm 3.7 1.9 3.6 99 0.0 W 2 4 1 2 1022.9 - 2.8
26/10:00pm 4.1 1.6 4.0 99 0.0 N 6 6 3 3 1023.5 - 2.8
26/09:54pm 4.1 1.6 4.0 99 0.0 NNW 6 6 3 3 1023.5 - 2.8
26/09:30pm 4.3 1.9 4.2 99 0.0 NNW 6 7 3 4 1023.6 - 2.0
26/09:21pm 4.3 1.9 4.2 99 0.0 NNW 6 7 3 4 1023.7 - 1.4
26/09:00pm 4.3 2.3 4.2 99 0.0 N 4 6 2 3 1023.7 1027.2 1.2
26/08:51pm 4.3 2.3 4.2 99 0.0 NNW 4 4 2 2 1023.7 - 1.2
26/08:30pm 4.3 2.6 4.2 99 0.0 NE 2 4 1 2 1023.6 - 1.2
26/08:00pm 4.3 2.6 4.2 99 0.0 NNE 2 4 1 2 1023.6 - 1.2
26/07:30pm 4.2 2.1 4.1 99 0.0 E 4 6 2 3 1023.5 - 1.2
26/07:00pm 4.3 1.7 4.2 99 0.0 ESE 7 7 4 4 1023.5 - 1.2
26/06:30pm 4.3 1.9 4.2 99 0.0 ESE 6 9 3 5 1023.3 - 1.2
26/06:00pm 4.4 1.8 4.3 99 0.0 ESE 7 9 4 5 1023.2 1026.7 1.2
26/05:30pm 4.6 1.7 4.5 99 0.0 SE 9 13 5 7 1023.2 - 1.2
26/05:28pm 4.6 1.7 4.5 99 0.0 SE 9 13 5 7 1023.2 - 1.2
26/05:08pm 4.7 1.8 4.6 99 0.0 SE 9 13 5 7 1023.2 - 1.0
26/05:00pm 4.8 1.5 4.7 99 0.0 SE 11 15 6 8 1023.1 - 1.0
26/04:45pm 5.1 2.3 5.0 99 0.0 SE 9 13 5 7 1023.0 - 0.8
26/04:30pm 5.2 2.4 5.1 99 0.0 SE 9 11 5 6 1022.9 - 0.8
26/04:00pm 5.5 2.7 5.1 97 0.2 ESE 9 13 5 7 1023.0 - 0.0
26/03:30pm 6.2 3.7 4.5 89 0.8 ESE 7 11 4 6 1023.0 - 0.0
26/03:00pm 6.5 3.9 4.3 86 1.0 ESE 7 13 4 7 1023.0 1026.5 0.0
26/02:30pm 6.8 3.8 3.9 82 1.3 ENE 9 13 5 7 1023.1 - 0.0
26/02:00pm 7.0 4.4 4.1 82 1.4 ENE 7 11 4 6 1023.3 - 0.0
26/01:30pm 6.2 3.0 3.2 81 1.4 ENE 9 17 5 9 1023.6 - 0.0
26/01:00pm 6.1 2.6 3.3 82 1.3 NNE 11 15 6 8 1023.9 - 0.0
26/12:30pm 6.2 3.1 3.5 83 1.2 NE 9 17 5 9 1024.5 - 0.0
26/12:00pm 5.9 2.0 3.6 85 1.0 NE 13 19 7 10 1024.9 1028.5 0.0
26/11:30am 5.5 2.4 5.4 99 0.0 NE 11 19 6 10 1025.4 - 0.0
26/11:00am 5.0 2.1 4.9 99 0.0 NE 9 15 5 8 1025.6 - 0.0
26/10:30am 3.9 1.2 3.8 99 0.0 NNE 7 15 4 8 1025.7 - 0.0
26/10:00am 3.3 0.7 3.2 99 0.0 ENE 6 9 3 5 1025.8 - 0.0
26/09:30am 2.7 -0.2 2.6 99 0.0 ENE 7 13 4 7 1025.8 - 0.0
26/09:00am 2.2 -0.8 2.1 99 0.0 E 7 11 4 6 1025.8 1029.4 11.6
26/08:30am 1.6 -1.3 1.5 99 0.0 E 6 7 3 4 1025.8 - 11.6
26/08:00am 0.9 -2.1 0.8 99 0.0 ENE 6 7 3 4 1025.8 - 11.6
26/07:30am 0.6 -2.4 0.5 99 0.0 ENE 6 9 3 5 1025.7 - 11.6
26/07:15am 0.5 -2.2 0.4 99 0.0 E 4 6 2 3 1025.5 - 11.6
26/07:00am 0.5 -2.6 0.4 99 0.0 E 6 9 3 5 1025.4 - 11.6
26/06:56am 0.5 -2.6 0.4 99 0.0 E 6 11 3 6 1025.3 - 11.6
26/06:39am 0.4 -2.7 0.3 99 0.0 E 6 9 3 5 1025.2 - 11.6
26/06:30am 0.4 -2.7 0.3 99 0.0 E 6 9 3 5 1025.0 - 11.6
26/06:01am 0.2 -2.5 0.1 99 0.0 E 4 6 2 3 1025.0 - 11.6
26/06:00am 0.2 -2.5 0.1 99 0.0 E 4 6 2 3 1025.0 1028.6 11.6
26/05:49am 0.0 -2.4 -0.1 99 0.0 NNE 2 6 1 3 1025.0 - 11.6
26/05:30am -0.2 -2.6 -0.3 99 0.0 SE 2 6 1 3 1024.8 - 11.6
26/05:00am 0.2 -2.5 0.1 99 0.0 ESE 4 6 2 3 1024.9 - 11.6
26/04:30am 0.2 -2.5 0.1 99 0.0 SSE 4 13 2 7 1024.9 - 11.6
26/04:00am -0.2 -3.4 -0.3 99 0.0 SSE 6 7 3 4 1024.8 - 11.6
26/03:30am 0.1 -3.6 0.0 99 0.0 SE 9 11 5 6 1024.7 - 11.6
26/03:00am 0.3 -3.0 0.2 99 0.0 SE 7 9 4 5 1024.8 1028.3 11.6
26/02:30am 0.5 -2.8 0.4 99 0.0 E 7 11 4 6 1024.8 - 11.6
26/02:00am 0.9 -3.4 0.8 99 0.0 ESE 13 20 7 11 1025.3 - 11.6
26/01:30am 1.1 -2.8 1.0 99 0.0 ESE 11 19 6 10 1025.4 - 11.6
26/01:00am 1.3 -3.4 1.2 99 0.0 ESE 15 22 8 12 1025.5 - 11.6
26/12:30am 1.5 -3.1 1.4 99 0.0 SE 15 20 8 11 1025.4 - 11.6
26/12:00am 1.7 -3.3 1.6 99 0.0 ESE 17 28 9 15 1025.5 1029.0 11.6
 
Date/Time
EST
Temp
°C
App
Temp
°C
Dew
Point
Rel
Hum
%
Delta-T
°C
Wind Press
QNH
hPa
Press
MSL
hPa
Rain
since 9 am
mm
Dir
 
Spd
km/h
Gust
km/h
Spd
kts
Gust
kts
25/11:30pm 1.7 -3.8 1.6 99 0.0 ESE 20 32 11 17 1025.4 - 11.6
25/11:00pm 1.9 -4.0 1.8 99 0.0 ESE 22 32 12 17 1025.3 - 11.6
25/10:30pm 1.9 -3.4 1.8 99 0.0 SE 19 26 10 14 1025.4 - 11.6
25/10:00pm 1.8 -2.4 1.7 99 0.0 SE 13 20 7 11 1025.4 - 11.4
25/09:30pm 1.7 -1.7 1.6 99 0.0 SE 9 15 5 8 1025.5 - 11.4
25/09:00pm 1.6 -2.2 1.5 99 0.0 SE 11 19 6 10 1025.5 1029.0 11.4
25/08:30pm 1.5 -2.4 1.4 99 0.0 SE 11 15 6 8 1025.4 - 11.4
25/08:00pm 1.3 -2.6 1.2 99 0.0 SE 11 19 6 10 1025.3 - 11.4
25/07:30pm 1.1 -2.8 1.0 99 0.0 SSE 11 17 6 9 1025.0 - 11.2
25/07:05pm 1.0 -2.6 0.9 99 0.0 SSE 9 15 5 8 1024.9 - 11.2
25/07:00pm 0.9 -2.7 0.8 99 0.0 SSE 9 13 5 7 1024.9 - 11.2
25/06:30pm 0.9 -3.1 0.8 99 0.0 SE 11 17 6 9 1024.7 - 11.2
25/06:00pm 0.8 -3.2 0.7 99 0.0 SSE 11 19 6 10 1024.2 1027.8 11.2
25/05:30pm 0.7 -2.9 0.6 99 0.0 SE 9 15 5 8 1024.0 - 11.0
25/05:03pm 0.6 -3.8 0.5 99 0.0 SE 13 22 7 12 1023.8 - 11.0
25/05:00pm 0.6 -3.8 0.5 99 0.0 SE 13 22 7 12 1023.7 - 11.0

Other Formats:

Comma delimited format used in spreadsheet applications
http://www.bom.gov.au/fwo/IDV60801/IDV60801.94905.axf

JavaScript Object Notation format (JSON) in row-major order
http://www.bom.gov.au/fwo/IDV60801/IDV60801.94905.json